Time;durP1;ratioP1;P1;durP2;ratioP2;P2;SDS_P1;SDS_P2;PMS_P1;PMS_P2;Temp;Humidity;BMP_temperature;BMP_pressure;BME280_temperature;BME280_humidity;BME280_pressure;Samples;Min_cycle;Max_cycle;Signal;HPM_P1;HPM_P2
2023/09/17 00:01:10;;;;;;;11.60;9.50;;;;;;;20.82;75.80;101231.94;5116035;28;20023;-60
2023/09/17 00:03:37;;;;;;;13.20;8.38;;;;;;;20.80;76.59;101219.47;5116225;28;20423;-61
2023/09/17 00:06:03;;;;;;;16.67;9.40;;;;;;;20.61;76.53;101225.31;5115997;28;20127;-59
2023/09/17 00:08:29;;;;;;;12.98;9.45;;;;;;;20.59;75.96;101218.19;5115852;28;20433;-60
2023/09/17 00:10:54;;;;;;;13.82;10.20;;;;;;;20.55;76.01;101220.06;5115728;28;20092;-59
2023/09/17 00:13:20;;;;;;;11.65;9.07;;;;;;;20.50;75.35;101213.94;5116035;28;20030;-61
2023/09/17 00:15:46;;;;;;;12.02;9.05;;;;;;;20.37;75.98;101209.75;5114425;28;20028;-61
2023/09/17 00:18:12;;;;;;;12.88;9.20;;;;;;;20.31;74.83;101205.41;5115858;28;20537;-59
2023/09/17 00:20:38;;;;;;;11.90;9.20;;;;;;;20.24;75.82;101204.66;5114451;28;20031;-60
2023/09/17 00:23:04;;;;;;;11.90;9.13;;;;;;;20.25;74.79;101195.69;5115561;28;20028;-60
2023/09/17 00:25:29;;;;;;;13.32;8.57;;;;;;;20.25;75.44;101192.13;5114243;28;20031;-59
2023/09/17 00:27:54;;;;;;;11.27;8.40;;;;;;;20.25;75.65;101192.13;5115246;27;20125;-60
2023/09/17 00:30:20;;;;;;;14.27;8.50;;;;;;;20.19;74.27;101193.16;5115228;28;20032;-60
2023/09/17 00:32:45;;;;;;;11.52;8.38;;;;;;;20.24;74.32;101199.31;5115490;28;20434;-59
2023/09/17 00:35:14;;;;;;;11.50;8.05;;;;;;;20.21;74.09;101203.84;5114114;28;20434;-59
2023/09/17 00:37:41;;;;;;;10.95;7.97;;;;;;;20.31;74.04;101215.28;5114113;28;20069;-59
2023/09/17 00:40:11;;;;;;;11.82;8.07;;;;;;;20.34;72.94;101225.91;5115423;28;20046;-60
2023/09/17 00:42:40;;;;;;;10.30;7.45;;;;;;;20.36;73.43;101218.72;5115085;28;20012;-59
2023/09/17 00:45:07;;;;;;;9.40;7.55;;;;;;;20.38;72.61;101228.50;5115462;28;20109;-60
2023/09/17 00:47:33;;;;;;;9.60;7.78;;;;;;;20.29;74.10;101233.19;5114900;28;20027;-61
2023/09/17 00:50:00;;;;;;;12.60;8.25;;;;;;;20.31;72.98;101226.88;5115028;28;20043;-59
2023/09/17 00:52:26;;;;;;;13.55;7.93;;;;;;;20.21;74.68;101214.59;5115101;28;20059;-61
2023/09/17 00:54:53;;;;;;;15.90;8.60;;;;;;;20.08;76.56;101207.75;5114961;28;20509;-61
2023/09/17 00:57:21;;;;;;;12.95;8.40;;;;;;;19.95;77.73;101208.00;5114883;27;20027;-61
2023/09/17 00:59:47;;;;;;;16.48;9.25;;;;;;;19.79;79.99;101208.41;5115168;28;20081;-60
2023/09/17 01:02:17;;;;;;;13.73;8.88;;;;;;;19.59;81.79;101206.97;5114739;27;20031;-60
2023/09/17 01:04:49;;;;;;;12.88;8.98;;;;;;;19.48;81.32;101209.00;5115122;28;20035;-60
2023/09/17 01:07:16;;;;;;;12.40;9.15;;;;;;;19.44;81.55;101216.22;5115053;28;20080;-61
2023/09/17 01:09:42;;;;;;;13.95;9.13;;;;;;;19.36;83.12;101209.25;5114576;28;20057;-61
2023/09/17 01:12:08;;;;;;;12.82;9.60;;;;;;;19.30;83.98;101207.56;5114699;28;20027;-60
2023/09/17 01:14:34;;;;;;;12.80;9.18;;;;;;;19.35;83.10;101208.34;5114590;28;20544;-60
2023/09/17 01:17:01;;;;;;;11.75;9.05;;;;;;;19.40;83.15;101200.22;5114309;28;20099;-61
2023/09/17 01:19:28;;;;;;;15.55;9.40;;;;;;;19.39;83.54;101193.09;5114522;28;20031;-61
2023/09/17 01:22:13;;;;;;;17.55;9.82;;;;;;;19.38;83.41;101188.66;5113580;28;20027;-61
2023/09/17 01:25:05;;;;;;;12.38;9.30;;;;;;;19.34;83.23;101184.28;5113120;28;20026;-61
2023/09/17 01:27:33;;;;;;;11.80;9.23;;;;;;;19.29;83.73;101180.81;5114562;28;20035;-61
2023/09/17 01:29:59;;;;;;;13.23;8.80;;;;;;;19.27;84.40;101187.09;5113378;28;20031;-61
2023/09/17 01:32:24;;;;;;;13.82;9.43;;;;;;;19.13;85.06;101183.78;5114129;28;20404;-61
2023/09/17 01:34:52;;;;;;;11.48;9.20;;;;;;;19.07;84.96;101178.53;5112962;28;20032;-60
2023/09/17 01:37:27;;;;;;;12.93;9.00;;;;;;;19.08;85.57;101182.97;5114271;28;20063;-60
2023/09/17 01:39:56;;;;;;;15.45;9.40;;;;;;;19.09;85.39;101176.69;5114158;28;20084;-61
2023/09/17 01:42:23;;;;;;;13.02;9.27;;;;;;;19.15;84.50;101183.75;5114019;28;20023;-60
2023/09/17 01:44:49;;;;;;;12.43;9.25;;;;;;;19.18;85.38;101178.31;5114109;28;20481;-61
2023/09/17 01:47:16;;;;;;;11.35;9.25;;;;;;;19.15;84.79;101171.25;5114101;28;20035;-61
2023/09/17 01:49:43;;;;;;;12.30;9.40;;;;;;;19.18;85.09;101167.59;5113941;28;20507;-61
2023/09/17 01:52:10;;;;;;;12.10;9.30;;;;;;;19.16;85.50;101173.00;5114038;27;20054;-61
2023/09/17 01:54:36;;;;;;;14.15;9.60;;;;;;;19.11;86.00;101169.53;5113902;28;20023;-60
2023/09/17 01:57:01;;;;;;;10.20;8.55;;;;;;;19.14;86.04;101157.84;5113956;28;20038;-61
2023/09/17 01:59:26;;;;;;;13.32;9.30;;;;;;;19.09;86.16;101157.06;5112501;28;20370;-60
2023/09/17 02:01:52;;;;;;;13.55;9.68;;;;;;;19.07;86.41;101154.44;5113689;28;20381;-61
2023/09/17 02:04:17;;;;;;;13.57;9.88;;;;;;;18.97;86.62;101153.75;5113735;28;20055;-60
2023/09/17 02:06:43;;;;;;;13.80;9.90;;;;;;;18.90;87.65;101157.44;5113982;28;20496;-61
2023/09/17 02:09:08;;;;;;;12.40;10.45;;;;;;;18.85;88.08;101164.69;5113596;28;20161;-60
2023/09/17 02:11:36;;;;;;;13.13;10.82;;;;;;;18.76;88.90;101164.84;5113499;28;20043;-61
2023/09/17 02:14:02;;;;;;;12.52;10.50;;;;;;;18.66;89.51;101168.53;5113589;28;20470;-60
2023/09/17 02:16:28;;;;;;;12.70;10.77;;;;;;;18.62;90.58;101167.72;5113684;28;20110;-59
2023/09/17 02:18:54;;;;;;;14.68;10.73;;;;;;;18.63;90.73;101164.16;5113596;28;20362;-60
2023/09/17 02:21:20;;;;;;;15.05;11.60;;;;;;;18.57;91.10;101156.19;5113752;28;20073;-61
2023/09/17 02:23:45;;;;;;;13.40;10.98;;;;;;;18.50;91.60;101152.78;5113518;28;20027;-61
2023/09/17 02:26:11;;;;;;;13.63;11.13;;;;;;;18.48;91.99;101159.03;5113452;28;20032;-61
2023/09/17 02:28:36;;;;;;;14.23;10.93;;;;;;;18.36;92.63;101157.44;5113726;28;20110;-60
2023/09/17 02:31:02;;;;;;;14.77;11.15;;;;;;;18.31;93.57;101155.75;5113405;28;20039;-62
2023/09/17 02:33:27;;;;;;;14.30;10.88;;;;;;;18.19;93.86;101151.47;5116709;28;20472;-61
2023/09/17 02:35:53;;;;;;;13.98;11.73;;;;;;;18.16;94.10;101148.88;5116442;28;20031;-60
2023/09/17 02:38:18;;;;;;;16.70;11.65;;;;;;;18.14;94.37;101142.66;5117933;28;20028;-62
2023/09/17 02:40:45;;;;;;;13.85;11.75;;;;;;;18.05;94.15;101132.09;5117616;28;20495;-61
2023/09/17 02:43:10;;;;;;;15.75;12.02;;;;;;;18.08;94.02;101126.72;5117513;28;20107;-61
2023/09/17 02:45:35;;;;;;;16.13;11.95;;;;;;;18.11;94.00;101130.19;5117467;28;20059;-61
2023/09/17 02:48:01;;;;;;;13.85;12.05;;;;;;;18.07;93.31;101116.91;5117318;28;20020;-61
2023/09/17 02:50:27;;;;;;;16.10;12.10;;;;;;;17.93;93.97;101109.97;5117425;28;20028;-61
2023/09/17 02:52:52;;;;;;;15.30;11.95;;;;;;;17.91;94.15;101125.19;5116413;28;20024;-60
2023/09/17 02:55:18;;;;;;;19.83;11.85;;;;;;;17.97;93.69;101110.81;5117347;28;20073;-60
2023/09/17 02:57:44;;;;;;;12.75;11.00;;;;;;;17.93;94.21;101119.78;5117212;28;20039;-60
2023/09/17 03:00:10;;;;;;;14.32;11.43;;;;;;;17.93;93.82;101119.78;5117266;28;20023;-60
2023/09/17 03:02:38;;;;;;;14.15;12.15;;;;;;;17.78;93.45;101118.25;5117375;28;20035;-60
2023/09/17 03:05:03;;;;;;;16.23;11.15;;;;;;;17.74;93.89;101122.75;5117094;28;20489;-60
2023/09/17 03:07:29;;;;;;;13.48;10.80;;;;;;;17.74;94.12;101116.53;5117012;28;20038;-61
2023/09/17 03:09:59;;;;;;;14.05;11.63;;;;;;;17.73;93.73;101112.06;5117312;28;20023;-60
2023/09/17 03:12:25;;;;;;;16.27;11.80;;;;;;;17.73;93.90;101114.72;5116946;27;20027;-60
2023/09/17 03:14:52;;;;;;;18.73;11.82;;;;;;;17.73;94.19;101112.06;5116894;27;20427;-60
2023/09/17 03:17:17;;;;;;;15.73;11.63;;;;;;;17.71;93.58;101106.72;5116935;28;20114;-59
2023/09/17 03:19:43;;;;;;;17.08;11.48;;;;;;;17.72;93.58;101112.94;5116828;28;20433;-61
2023/09/17 03:22:08;;;;;;;16.15;12.27;;;;;;;17.69;93.65;101103.19;5116872;28;20023;-62
2023/09/17 03:24:34;;;;;;;14.95;12.00;;;;;;;17.63;93.69;101105.94;5116990;28;20388;-60
2023/09/17 03:27:00;;;;;;;15.98;11.73;;;;;;;17.68;93.33;101111.22;5116618;28;20481;-61
2023/09/17 03:29:25;;;;;;;15.52;11.57;;;;;;;17.69;93.25;101115.69;5116956;28;20031;-61
2023/09/17 03:31:51;;;;;;;15.15;11.82;;;;;;;17.84;92.54;101117.25;5116406;28;20407;-60
2023/09/17 03:34:16;;;;;;;16.27;11.75;;;;;;;17.80;92.29;101112.88;5116629;28;20443;-61
2023/09/17 03:36:41;;;;;;;16.05;12.38;;;;;;;17.83;92.35;101115.50;5116729;28;20532;-60
2023/09/17 03:39:08;;;;;;;16.70;12.23;;;;;;;17.82;91.96;101113.75;5116607;28;20034;-60
2023/09/17 03:41:34;;;;;;;13.05;11.02;;;;;;;17.87;92.07;101111.88;5116405;28;20469;-60
2023/09/17 03:43:59;;;;;;;14.27;11.43;;;;;;;17.82;91.63;101113.75;5115208;28;20027;-61
2023/09/17 03:46:24;;;;;;;14.85;11.98;;;;;;;17.77;92.54;101106.69;5116175;28;20031;-61
2023/09/17 03:48:50;;;;;;;14.98;12.13;;;;;;;17.81;92.35;101109.28;5116268;28;20528;-60
2023/09/17 03:51:15;;;;;;;14.93;11.57;;;;;;;17.82;92.41;101106.59;5116490;28;20027;-61
2023/09/17 03:53:41;;;;;;;13.20;10.70;;;;;;;17.93;91.50;101107.31;5116289;28;20469;-60
2023/09/17 03:56:06;;;;;;;16.55;12.20;;;;;;;17.89;91.61;101108.25;5116265;28;20098;-61
2023/09/17 03:58:32;;;;;;;15.02;11.82;;;;;;;17.91;91.88;101113.59;5115211;28;20464;-61
2023/09/17 04:00:57;;;;;;;16.98;12.32;;;;;;;18.11;91.07;101118.63;5116290;28;20469;-60
2023/09/17 04:03:23;;;;;;;13.93;11.52;;;;;;;18.11;90.64;101119.50;5116042;28;20103;-61
2023/09/17 04:05:52;;;;;;;15.00;12.00;;;;;;;18.06;91.53;101112.47;5116311;28;20035;-61
2023/09/17 04:08:17;;;;;;;14.45;11.82;;;;;;;18.10;91.48;101116.88;5115957;28;20024;-60
2023/09/17 04:10:43;;;;;;;14.45;12.27;;;;;;;18.10;90.98;101112.41;5115967;28;20086;-61
2023/09/17 04:13:12;;;;;;;15.10;12.05;;;;;;;18.08;91.76;101108.88;5115864;28;20043;-60
2023/09/17 04:15:37;;;;;;;14.00;12.45;;;;;;;18.09;91.68;101104.41;5115968;28;20027;-60
2023/09/17 04:18:04;;;;;;;14.32;12.63;;;;;;;18.05;92.15;101106.25;5115870;28;20032;-60
2023/09/17 04:20:30;;;;;;;19.77;12.90;;;;;;;18.11;92.27;101107.91;5115787;28;20107;-60
2023/09/17 04:22:55;;;;;;;15.68;12.15;;;;;;;18.10;91.87;101106.16;5115481;28;20106;-62
2023/09/17 04:25:21;;;;;;;17.50;12.00;;;;;;;18.03;92.35;101102.72;5115705;28;20028;-61
2023/09/17 04:27:47;;;;;;;15.43;12.82;;;;;;;18.03;92.66;101105.41;5115599;28;20028;-61
2023/09/17 04:30:14;;;;;;;14.57;12.45;;;;;;;18.07;92.43;101106.19;5115523;28;20032;-62
2023/09/17 04:32:41;;;;;;;17.50;12.68;;;;;;;18.08;92.68;101103.53;5115459;28;20447;-60
2023/09/17 04:35:08;;;;;;;14.63;12.98;;;;;;;18.13;92.64;101095.44;5115740;28;20032;-60
2023/09/17 04:37:35;;;;;;;17.30;13.20;;;;;;;18.16;92.62;101098.06;5115231;28;20481;-61
2023/09/17 04:40:01;;;;;;;15.95;13.20;;;;;;;18.16;92.79;101104.28;5115389;28;20024;-61
2023/09/17 04:42:28;;;;;;;15.57;12.90;;;;;;;18.19;92.65;101101.53;5115255;27;20023;-62
2023/09/17 04:44:55;;;;;;;15.70;12.77;;;;;;;18.17;92.85;101098.03;5115186;28;20069;-61
2023/09/17 04:47:20;;;;;;;16.73;13.05;;;;;;;18.19;93.36;101092.63;5115127;28;20034;-60
2023/09/17 04:49:45;;;;;;;15.00;13.07;;;;;;;18.24;93.23;101094.34;5115179;28;20102;-60
2023/09/17 04:52:11;;;;;;;16.70;13.15;;;;;;;18.31;92.63;101092.44;5115098;28;20473;-61
2023/09/17 04:54:39;;;;;;;16.08;13.75;;;;;;;18.34;93.32;101099.53;5114947;28;20106;-61
2023/09/17 04:57:05;;;;;;;15.30;12.98;;;;;;;18.39;92.62;101087.84;5115034;28;20036;-61
2023/09/17 04:59:30;;;;;;;18.15;14.38;;;;;;;18.38;92.61;101095.91;5114910;28;20030;-61
2023/09/17 05:01:56;;;;;;;15.10;13.50;;;;;;;18.35;92.88;101090.59;5115180;28;20073;-61
2023/09/17 05:04:24;;;;;;;16.40;13.98;;;;;;;18.32;92.83;101096.00;5113531;28;20477;-62
2023/09/17 05:06:49;;;;;;;16.98;13.35;;;;;;;18.31;93.45;101095.09;5114791;28;20358;-60
2023/09/17 05:09:15;;;;;;;17.40;13.48;;;;;;;18.33;93.44;101092.41;5114826;28;20529;-62
2023/09/17 05:11:40;;;;;;;16.23;13.82;;;;;;;18.39;93.66;101101.22;5114588;28;20530;-61
2023/09/17 05:14:06;;;;;;;15.75;13.55;;;;;;;18.38;93.97;101098.56;5114584;28;20055;-61
2023/09/17 05:16:31;;;;;;;15.80;13.88;;;;;;;18.29;93.99;101096.94;5114309;28;20566;-60
2023/09/17 05:18:57;;;;;;;17.23;14.52;;;;;;;18.31;93.98;101107.59;5114468;28;20031;-60
2023/09/17 05:21:22;;;;;;;16.73;13.98;;;;;;;18.30;94.21;101103.16;5114730;28;20038;-60
2023/09/17 05:23:47;;;;;;;18.38;13.88;;;;;;;18.41;94.31;101103.84;5113148;28;20387;-62
2023/09/17 05:26:13;;;;;;;17.08;14.27;;;;;;;18.44;94.07;101111.84;5114643;28;20036;-61
2023/09/17 05:28:38;;;;;;;16.65;14.07;;;;;;;18.43;93.90;101104.72;5114533;28;20462;-61
2023/09/17 05:31:03;;;;;;;17.02;14.65;;;;;;;18.45;94.70;101111.78;5114046;28;20408;-61
2023/09/17 05:33:30;;;;;;;18.48;14.45;;;;;;;18.41;94.87;101112.75;5114580;28;20027;-60
2023/09/17 05:35:56;;;;;;;16.70;14.75;;;;;;;18.37;95.32;101110.16;5114074;28;20023;-61
2023/09/17 05:38:23;;;;;;;18.20;14.70;;;;;;;18.40;94.84;101111.00;5114313;28;20543;-61
2023/09/17 05:40:49;;;;;;;18.30;15.05;;;;;;;18.45;95.33;101109.13;5114129;28;20370;-60
2023/09/17 05:43:15;;;;;;;18.42;14.95;;;;;;;18.42;95.98;101109.19;5114234;28;20035;-61
2023/09/17 05:45:40;;;;;;;16.77;14.55;;;;;;;18.39;96.40;101113.72;5114312;28;20496;-61
2023/09/17 05:48:06;;;;;;;17.60;14.88;;;;;;;18.38;96.55;101118.19;5113867;28;20020;-60
2023/09/17 05:50:31;;;;;;;16.52;14.52;;;;;;;18.45;96.65;101113.59;5114074;28;20024;-60
2023/09/17 05:52:57;;;;;;;17.15;15.00;;;;;;;18.42;96.67;101116.34;5113978;28;20027;-60
2023/09/17 05:55:23;;;;;;;19.02;15.35;;;;;;;18.39;96.85;101114.59;5113988;28;20027;-61
2023/09/17 05:57:48;;;;;;;16.80;15.00;;;;;;;18.45;96.85;101113.59;5113553;28;20386;-60
2023/09/17 06:00:14;;;;;;;16.67;14.68;;;;;;;18.51;96.70;101113.50;5113628;28;20028;-60
2023/09/17 06:02:39;;;;;;;16.50;14.80;;;;;;;18.50;96.79;101106.41;5113718;28;20057;-60
2023/09/17 06:05:05;;;;;;;18.65;15.43;;;;;;;18.48;97.32;101114.44;5113427;28;20024;-60
2023/09/17 06:07:30;;;;;;;18.00;15.40;;;;;;;18.51;96.73;101103.69;5112803;28;20028;-61
2023/09/17 06:09:56;;;;;;;17.58;15.13;;;;;;;18.51;97.19;101109.03;5113232;28;20028;-61
2023/09/17 06:12:21;;;;;;;18.85;15.38;;;;;;;18.53;97.25;101109.88;5113167;28;20055;-61
2023/09/17 06:14:46;;;;;;;17.60;15.70;;;;;;;18.53;97.54;101109.00;5113254;28;20378;-60
2023/09/17 06:17:12;;;;;;;17.35;15.48;;;;;;;18.62;97.95;101106.16;5113332;28;20106;-60
2023/09/17 06:19:37;;;;;;;18.00;15.23;;;;;;;18.73;97.60;101109.56;5113169;28;20461;-61
2023/09/17 06:22:04;;;;;;;17.90;15.13;;;;;;;18.81;97.92;101113.88;5111839;28;20036;-61
2023/09/17 06:24:30;;;;;;;17.60;15.70;;;;;;;18.85;97.89;101104.88;5113052;28;20110;-61
2023/09/17 06:26:55;;;;;;;16.98;15.18;;;;;;;18.88;97.48;101108.34;5113202;28;20115;-60
2023/09/17 06:29:21;;;;;;;18.65;15.55;;;;;;;18.88;97.58;101102.13;5113120;28;20076;-61
2023/09/17 06:31:47;;;;;;;17.48;15.68;;;;;;;18.88;98.09;101111.03;5112716;28;20451;-60
2023/09/17 06:34:12;;;;;;;17.05;15.27;;;;;;;18.92;98.66;101101.16;5113195;28;20384;-61
2023/09/17 06:36:38;;;;;;;19.55;15.55;;;;;;;18.85;99.08;101103.09;5112923;28;20477;-60
2023/09/17 06:39:05;;;;;;;17.30;15.50;;;;;;;18.85;99.54;101104.88;5113062;28;20055;-60
2023/09/17 06:41:31;;;;;;;19.65;16.67;;;;;;;18.89;99.54;101099.44;5111704;28;20028;-62
2023/09/17 06:43:57;;;;;;;17.60;15.80;;;;;;;18.89;100.00;101101.25;5112850;28;20495;-62
2023/09/17 06:46:24;;;;;;;18.13;16.23;;;;;;;18.96;99.41;101109.09;5112753;28;20108;-60
2023/09/17 06:48:50;;;;;;;17.10;15.30;;;;;;;19.02;99.33;101109.00;5112852;28;20063;-61
2023/09/17 06:51:15;;;;;;;18.00;16.08;;;;;;;19.04;99.30;101111.63;5111622;28;20036;-61
2023/09/17 06:53:41;;;;;;;23.10;15.82;;;;;;;19.04;99.56;101111.63;5112781;28;20031;-61
2023/09/17 06:56:08;;;;;;;18.90;16.02;;;;;;;19.07;99.60;101108.91;5112898;28;20415;-61
2023/09/17 06:58:34;;;;;;;19.42;15.38;;;;;;;19.11;99.83;101102.56;5112851;28;20058;-61
2023/09/17 07:01:00;;;;;;;20.65;15.63;;;;;;;19.15;99.47;101104.28;5112836;28;20048;-61
2023/09/17 07:03:25;;;;;;;18.58;16.10;;;;;;;19.13;99.74;101103.41;5112946;28;20042;-62
2023/09/17 07:05:50;;;;;;;19.92;16.38;;;;;;;19.14;100.00;101097.16;5112695;28;20043;-61
2023/09/17 07:08:16;;;;;;;19.20;16.98;;;;;;;19.17;100.00;101099.75;5111259;28;20404;-61
2023/09/17 07:10:44;;;;;;;18.65;16.65;;;;;;;19.16;100.00;101105.16;5112702;28;20111;-60
2023/09/17 07:13:09;;;;;;;19.58;17.25;;;;;;;19.23;100.00;101098.75;5112902;28;20062;-62
2023/09/17 07:15:35;;;;;;;19.38;16.92;;;;;;;19.27;100.00;101113.84;5112145;28;20434;-62
2023/09/17 07:18:01;;;;;;;21.73;17.92;;;;;;;19.29;100.00;101119.19;5112972;28;20034;-61
2023/09/17 07:20:26;;;;;;;21.80;17.42;;;;;;;19.31;100.00;101110.19;5116622;28;20034;-61
2023/09/17 07:22:51;;;;;;;20.67;17.48;;;;;;;19.31;100.00;101112.84;5116480;28;20193;-61
2023/09/17 07:25:17;;;;;;;20.08;17.67;;;;;;;19.38;100.00;101116.31;5116332;28;20057;-60
2023/09/17 07:27:42;;;;;;;21.30;17.67;;;;;;;19.42;100.00;101108.16;5116326;28;20431;-61
2023/09/17 07:30:08;;;;;;;20.48;17.98;;;;;;;19.44;100.00;101102.75;5116261;28;20102;-61
2023/09/17 07:32:33;;;;;;;25.52;19.20;;;;;;;19.44;100.00;101103.66;5116126;28;20131;-60
2023/09/17 07:35:02;;;;;;;21.70;18.25;;;;;;;19.46;100.00;101096.47;5116533;28;20028;-62
2023/09/17 07:37:28;;;;;;;23.08;19.13;;;;;;;19.42;100.00;101097.44;5115935;28;20027;-61
2023/09/17 07:39:57;;;;;;;21.83;18.85;;;;;;;19.44;100.00;101098.31;5116220;27;20107;-61
2023/09/17 07:42:23;;;;;;;24.52;19.73;;;;;;;19.46;100.00;101092.91;5115948;28;20032;-60
2023/09/17 07:44:48;;;;;;;24.05;19.23;;;;;;;19.50;100.00;101090.13;5115956;28;20363;-61
2023/09/17 07:47:14;;;;;;;24.95;20.08;;;;;;;19.55;100.00;101095.38;5115788;28;20036;-61
2023/09/17 07:49:39;;;;;;;23.63;19.70;;;;;;;19.58;100.00;101097.13;5116103;28;20401;-61
2023/09/17 07:52:05;;;;;;;28.08;20.23;;;;;;;19.60;100.00;101098.81;5115715;28;20024;-62
2023/09/17 07:54:36;;;;;;;30.42;20.73;;;;;;;19.62;100.00;101104.22;5115538;28;20036;-61
2023/09/17 07:57:04;;;;;;;26.73;20.20;;;;;;;19.69;100.00;101097.75;5114345;28;20076;-61
2023/09/17 07:59:35;;;;;;;26.75;20.85;;;;;;;19.68;100.00;101104.94;5115955;28;20051;-62
2023/09/17 08:02:02;;;;;;;25.38;20.98;;;;;;;19.72;100.00;101103.06;5115836;28;20086;-61
2023/09/17 08:04:27;;;;;;;28.33;21.70;;;;;;;19.73;100.00;101110.19;5115621;27;20034;-62
2023/09/17 08:06:53;;;;;;;26.83;21.55;;;;;;;19.75;100.00;101117.28;5115808;28;20027;-61
2023/09/17 08:09:18;;;;;;;27.17;22.88;;;;;;;19.82;100.00;101117.13;5115264;28;20024;-61
2023/09/17 08:11:44;;;;;;;32.05;22.80;;;;;;;19.82;100.00;101114.47;5115448;28;20028;-61
2023/09/17 08:14:10;;;;;;;31.13;22.75;;;;;;;19.87;100.00;101118.81;5115444;28;20027;-60
2023/09/17 08:16:38;;;;;;;27.80;23.00;;;;;;;19.95;100.00;101118.63;5115396;28;20460;-61
2023/09/17 08:19:05;;;;;;;30.38;23.00;;;;;;;19.96;100.00;101121.28;5115096;28;20049;-61
2023/09/17 08:21:30;;;;;;;30.27;23.70;;;;;;;20.01;100.00;101118.50;5115239;27;20068;-61
2023/09/17 08:23:56;;;;;;;28.70;23.40;;;;;;;20.04;100.00;101126.44;5115319;27;20102;-60
2023/09/17 08:26:23;;;;;;;34.60;24.30;;;;;;;20.02;100.00;101122.94;5115323;27;20473;-61
2023/09/17 08:28:49;;;;;;;30.08;24.65;;;;;;;20.02;100.00;101129.16;5115414;28;20020;-60
2023/09/17 08:31:19;;;;;;;30.83;24.90;;;;;;;20.03;100.00;101132.72;5114414;27;20484;-60
2023/09/17 08:33:45;;;;;;;29.15;24.60;;;;;;;20.04;100.00;101130.94;5115484;28;20039;-61
2023/09/17 08:36:11;;;;;;;32.53;24.95;;;;;;;20.05;100.00;101125.53;5115029;28;20039;-61
2023/09/17 08:38:37;;;;;;;30.45;25.15;;;;;;;20.10;100.00;101122.75;5115431;27;20031;-61
2023/09/17 08:41:05;;;;;;;25.67;22.30;;;;;;;20.15;100.00;101121.72;5114935;28;20032;-63
2023/09/17 08:43:31;;;;;;;33.38;26.13;;;;;;;20.15;100.00;101127.06;5114796;28;20078;-61
2023/09/17 08:46:03;;;;;;;30.20;26.50;;;;;;;20.20;100.00;101124.28;5114711;28;20039;-61
2023/09/17 08:48:29;;;;;;;34.95;26.88;;;;;;;20.25;100.00;101128.59;5113571;28;20389;-61
2023/09/17 08:51:01;;;;;;;32.35;27.35;;;;;;;20.30;100.00;101124.91;5114698;28;20032;-62
2023/09/17 08:53:31;;;;;;;34.55;27.80;;;;;;;20.30;100.00;101130.28;5114984;28;20034;-61
2023/09/17 08:55:58;;;;;;;36.05;27.77;;;;;;;20.23;100.00;101133.13;5114512;28;20063;-62
2023/09/17 08:58:32;;;;;;;35.95;28.05;;;;;;;20.19;100.00;101135.94;5114488;28;20034;-62
2023/09/17 09:01:03;;;;;;;40.70;28.95;;;;;;;20.19;100.00;101144.00;5114826;28;20023;-61
2023/09/17 09:03:33;;;;;;;33.63;29.37;;;;;;;20.25;100.00;101144.69;5114487;28;20062;-62
2023/09/17 09:06:00;;;;;;;39.85;28.55;;;;;;;20.23;100.00;101143.00;5114485;28;20027;-62
2023/09/17 09:08:27;;;;;;;39.95;29.38;;;;;;;20.29;100.00;101141.94;5114322;28;20516;-60
2023/09/17 09:10:54;;;;;;;42.50;30.05;;;;;;;20.29;100.00;101150.00;5114577;28;20019;-62
2023/09/17 09:13:21;;;;;;;43.85;30.92;;;;;;;20.36;100.00;101146.25;5114130;28;20520;-61
2023/09/17 09:15:47;;;;;;;35.90;30.33;;;;;;;20.43;100.00;101154.13;5114156;28;20035;-61
2023/09/17 09:18:14;;;;;;;44.00;31.13;;;;;;;20.52;100.00;101157.53;5112711;28;20027;-61
2023/09/17 09:20:40;;;;;;;38.35;31.30;;;;;;;20.53;100.00;101156.59;5113039;28;20063;-61
2023/09/17 09:23:07;;;;;;;36.08;28.08;;;;;;;20.56;100.00;101157.41;5114325;28;20122;-61
2023/09/17 09:25:34;;;;;;;41.72;32.40;;;;;;;20.47;100.00;101154.91;5113713;28;20049;-62
2023/09/17 09:28:00;;;;;;;40.20;31.73;;;;;;;20.39;100.00;101157.81;5113803;28;20070;-61
2023/09/17 09:30:27;;;;;;;46.47;33.97;;;;;;;20.35;100.00;101152.56;5114221;28;20027;-61
2023/09/17 09:32:52;;;;;;;39.28;31.33;;;;;;;20.37;100.00;101150.69;5113350;28;20054;-63
2023/09/17 09:35:18;;;;;;;40.67;32.22;;;;;;;20.41;100.00;101144.34;5098220;28;20040;-61
2023/09/17 09:37:45;;;;;;;38.90;29.75;;;;;;;20.43;100.00;101151.44;5093709;28;20044;-61
2023/09/17 09:40:13;;;;;;;37.00;29.48;;;;;;;20.46;100.00;101142.41;5093439;28;20039;-60
2023/09/17 09:42:38;;;;;;;35.88;29.70;;;;;;;20.44;100.00;101136.22;5091183;28;20497;-62
2023/09/17 09:45:04;;;;;;;39.95;30.08;;;;;;;20.46;100.00;101139.72;5093330;28;20029;-60
2023/09/17 09:47:30;;;;;;;37.13;29.35;;;;;;;20.49;100.00;101139.69;5093191;28;20431;-61
2023/09/17 09:49:56;;;;;;;34.70;27.10;;;;;;;20.47;100.00;101136.13;5093560;28;20032;-62
2023/09/17 09:52:24;;;;;;;37.17;28.55;;;;;;;20.43;100.00;101139.81;5093556;28;20115;-61
2023/09/17 09:54:49;;;;;;;35.88;29.00;;;;;;;20.44;100.00;101144.25;5093202;28;20036;-61
2023/09/17 09:57:16;;;;;;;38.35;26.35;;;;;;;20.44;100.00;101150.50;5091772;28;20092;-62
2023/09/17 09:59:45;;;;;;;39.17;30.13;;;;;;;20.35;100.00;101150.75;5093373;28;20031;-60
2023/09/17 10:02:13;;;;;;;36.90;28.95;;;;;;;20.28;100.00;101149.13;5093010;28;20077;-61
2023/09/17 10:04:39;;;;;;;42.45;30.42;;;;;;;20.32;100.00;101142.75;5093266;28;20032;-62
2023/09/17 10:07:05;;;;;;;44.20;30.77;;;;;;;20.35;100.00;101136.44;5092988;28;20028;-62
2023/09/17 10:09:32;;;;;;;43.40;31.02;;;;;;;20.37;100.00;101138.16;5093002;28;20051;-62
2023/09/17 10:11:58;;;;;;;38.45;28.30;;;;;;;20.39;100.00;101138.13;5092808;28;20032;-62
2023/09/17 10:14:26;;;;;;;38.67;28.25;;;;;;;20.40;100.00;101142.59;5091669;28;20542;-63
2023/09/17 10:16:53;;;;;;;43.88;30.35;;;;;;;20.30;100.00;101144.63;5092565;28;20024;-62
2023/09/17 10:19:21;;;;;;;43.15;30.00;;;;;;;20.26;100.00;101135.75;5092940;28;20043;-61
2023/09/17 10:21:48;;;;;;;42.88;29.90;;;;;;;20.35;100.00;101131.97;5092782;28;20028;-62
2023/09/17 10:24:15;;;;;;;45.47;29.23;;;;;;;20.35;100.00;101131.97;5092945;28;20027;-62
2023/09/17 10:26:43;;;;;;;42.70;29.42;;;;;;;20.46;100.00;101129.00;5092532;28;20040;-62
2023/09/17 10:29:10;;;;;;;40.65;28.25;;;;;;;20.57;100.00;101126.94;5092613;28;20020;-62
2023/09/17 10:31:40;;;;;;;40.40;27.55;;;;;;;20.63;100.00;101120.53;5092313;28;20386;-62
2023/09/17 10:34:08;;;;;;;40.42;27.63;;;;;;;20.72;100.00;101115.78;5109886;28;20027;-61
2023/09/17 10:36:36;;;;;;;42.28;28.10;;;;;;;20.81;100.00;101120.03;5113114;28;20016;-63
2023/09/17 10:39:02;;;;;;;41.05;26.48;;;;;;;20.92;100.00;101130.50;5111740;28;20016;-63
2023/09/17 10:41:32;;;;;;;39.92;26.95;;;;;;;21.02;100.00;101124.81;5113182;28;20134;-62
2023/09/17 10:43:59;;;;;;;40.53;26.92;;;;;;;21.08;100.00;101125.59;5112975;28;20080;-61
2023/09/17 10:46:27;;;;;;;38.85;27.45;;;;;;;21.16;100.00;101123.56;5112855;28;20039;-62
2023/09/17 10:48:53;;;;;;;37.40;25.13;;;;;;;21.24;100.00;101125.09;5112596;28;20016;-62
2023/09/17 10:51:19;;;;;;;36.22;25.00;;;;;;;21.29;100.00;101118.72;5112841;28;20020;-63
2023/09/17 10:53:45;;;;;;;33.35;25.90;;;;;;;21.18;99.91;101127.94;5114439;28;20115;-62
2023/09/17 10:56:13;;;;;;;37.45;26.10;;;;;;;21.15;100.00;101127.16;5116875;28;20034;-62
2023/09/17 10:58:52;;;;;;;32.92;24.20;;;;;;;21.16;100.00;101127.13;5116635;28;20106;-61
2023/09/17 11:01:26;;;;;;;31.05;23.35;;;;;;;21.24;100.00;101121.50;5116916;28;20028;-61
2023/09/17 11:03:58;;;;;;;33.65;24.77;;;;;;;21.33;100.00;101117.75;5115380;28;20518;-62